Bergamot Ace — ZGAS5 — position and weather

sailwx.info

Track history (hours):
 
Tides and Currents Weather Stations Pressure Air Temp Water Temp Dewpoint Dewpoint Depression Visibility Wind Speed Wind Dir Waves Ship Positions

Bergamot Ace

Last reported at 2017-Jan-12 09:23 UTC. Time now 2017-Jan-23 19:01 UTC.
Position N 32°21' W 117°53'.
Warning: this ship's position is 11 days out of date.

Length 186 m; draft 6.7 m.

Type: Cargo ship. MMSI: 319740000.

Date/timePositionNaut miles runAvg speedWind from/ knotsBaromVisibWave heightAir tempDewpointWater temp
2017-Jan-12 09:23N 32°21' W 117°53'1316.0
2017-Jan-12 08:33N 32°34' W 117°48'1615.6
2017-Jan-12 07:33N 32°49' W 117°54'1313.2
2017-Jan-12 06:34N 33°01' W 117°59'1211.9
2017-Jan-12 05:34N 33°12' W 118°04'1111.1
2017-Jan-12 04:33N 33°23' W 118°08'1010.0
2017-Jan-12 03:31N 33°32' W 118°13'8 5.6
2017-Jan-12 02:04N 33°40' W 118°15'4 7.0
2017-Jan-12 01:33N 33°44' W 118°16'2 0.1
2017-Jan-11 13:32N 33°45' W 118°16'6 6.1
2017-Jan-11 12:33N 33°39' W 118°14'7 6.5
2017-Jan-11 11:29N 33°36' W 118°22'  
Track history (hours):
 
Tides and Currents Weather Stations Pressure Air Temp Water Temp Dewpoint Dewpoint Depression Visibility Wind Speed Wind Dir Waves Ship Positions

Bergamot Ace

Last reported at 2017-Jan-12 09:23 UTC. Time now 2017-Jan-23 19:01 UTC.
Position N 32°21' W 117°53'.
Warning: this ship's position is 11 days out of date.

Length 186 m; draft 6.7 m.

Type: Cargo ship. MMSI: 319740000.

Date/timePositionNaut miles runAvg speedWind from/ knotsBaromVisibWave heightAir tempDewpointWater temp
2017-Jan-12 09:23N 32°21' W 117°53'1316.0
2017-Jan-12 08:33N 32°34' W 117°48'1615.6
2017-Jan-12 07:33N 32°49' W 117°54'1313.2
2017-Jan-12 06:34N 33°01' W 117°59'1211.9
2017-Jan-12 05:34N 33°12' W 118°04'1111.1
2017-Jan-12 04:33N 33°23' W 118°08'1010.0
2017-Jan-12 03:31N 33°32' W 118°13'8 5.6
2017-Jan-12 02:04N 33°40' W 118°15'4 7.0
2017-Jan-12 01:33N 33°44' W 118°16'2 0.1
2017-Jan-11 13:32N 33°45' W 118°16'6 6.1
2017-Jan-11 12:33N 33°39' W 118°14'7 6.5
2017-Jan-11 11:29N 33°36' W 118°22'  

Dump ship's entire track history